createdAt,value
2022-12-25T00:00:06.277Z,37.44
2022-12-25T00:01:06.210Z,37.23
2022-12-25T00:02:06.176Z,37.32
2022-12-25T00:03:06.234Z,37.31
2022-12-25T00:04:06.242Z,37.36
2022-12-25T00:05:06.131Z,37.41
2022-12-25T00:06:06.114Z,37.39
2022-12-25T00:07:06.137Z,37.26
2022-12-25T00:08:06.114Z,37.23
2022-12-25T00:09:06.127Z,37.21
2022-12-25T00:10:06.091Z,37.19
2022-12-25T00:11:06.077Z,37.26
2022-12-25T00:12:06.098Z,37.14
2022-12-25T00:13:06.067Z,37.14
2022-12-25T00:14:06.059Z,37.05
2022-12-25T00:15:06.070Z,37.12
2022-12-25T00:16:06.108Z,37.09
2022-12-25T00:17:06.017Z,36.99
2022-12-25T00:18:06.031Z,37.09
2022-12-25T00:19:06.029Z,37.03
2022-12-25T00:20:05.999Z,36.92
2022-12-25T00:21:06.038Z,36.82
2022-12-25T00:22:05.999Z,36.99
2022-12-25T00:23:05.972Z,36.92
2022-12-25T00:24:06.002Z,36.75
2022-12-25T00:25:05.955Z,36.75
2022-12-25T00:26:05.965Z,36.79
2022-12-25T00:27:05.935Z,36.68
2022-12-25T00:28:05.942Z,36.77
2022-12-25T00:29:05.956Z,36.65
2022-12-25T00:30:05.943Z,36.74
2022-12-25T00:31:05.905Z,36.74
2022-12-25T00:32:05.894Z,36.73
2022-12-25T00:33:05.879Z,36.68
2022-12-25T00:34:05.883Z,36.62
2022-12-25T00:35:05.867Z,36.54
2022-12-25T00:36:05.888Z,36.63
2022-12-25T00:37:05.848Z,36.70
2022-12-25T00:38:05.829Z,36.61
2022-12-25T00:39:05.852Z,36.59
2022-12-25T00:40:05.818Z,36.56
2022-12-25T00:41:05.835Z,36.66
2022-12-25T00:42:05.808Z,36.61
2022-12-25T00:43:05.793Z,36.65
2022-12-25T00:44:05.800Z,36.62
2022-12-25T00:45:05.790Z,36.58
2022-12-25T00:46:05.864Z,36.62
2022-12-25T00:47:05.805Z,36.59
2022-12-25T00:48:05.745Z,36.57
2022-12-25T00:49:05.750Z,36.62
2022-12-25T00:50:05.748Z,36.54
2022-12-25T00:51:05.750Z,36.52
2022-12-25T00:52:05.725Z,36.56
2022-12-25T00:53:05.723Z,36.58
2022-12-25T00:54:05.721Z,36.51
2022-12-25T00:55:05.687Z,36.53
2022-12-25T00:56:05.691Z,36.54
2022-12-25T00:57:05.712Z,36.56
2022-12-25T00:58:05.675Z,36.56
2022-12-25T00:59:05.642Z,36.56
2022-12-25T01:00:05.641Z,36.53
2022-12-25T01:01:05.676Z,36.47
2022-12-25T01:02:05.750Z,36.51
2022-12-25T01:03:05.694Z,36.57
2022-12-25T01:04:05.601Z,36.52
2022-12-25T01:05:05.596Z,36.61
2022-12-25T01:06:05.595Z,36.53
2022-12-25T01:07:05.606Z,36.54
2022-12-25T01:08:05.570Z,36.52
2022-12-25T01:09:05.561Z,36.48
2022-12-25T01:10:05.551Z,36.49
2022-12-25T01:11:05.538Z,36.48
2022-12-25T01:12:05.532Z,36.62
2022-12-25T01:13:05.559Z,36.46
2022-12-25T01:14:05.514Z,36.50
2022-12-25T01:15:05.506Z,36.52
2022-12-25T01:16:05.514Z,36.48
2022-12-25T01:17:05.495Z,36.48
2022-12-25T01:18:07.902Z,36.52
2022-12-25T01:19:05.489Z,36.45
2022-12-25T01:20:05.467Z,36.50
2022-12-25T01:21:05.462Z,36.50
2022-12-25T01:22:05.440Z,36.52
2022-12-25T01:23:05.500Z,36.52
2022-12-25T01:24:05.432Z,36.37
2022-12-25T01:25:05.421Z,36.36
2022-12-25T01:26:05.805Z,36.40
2022-12-25T01:27:05.412Z,36.53
2022-12-25T01:28:05.412Z,36.45
2022-12-25T01:29:05.384Z,36.43
2022-12-25T01:30:05.392Z,36.40
2022-12-25T01:31:05.369Z,36.49
2022-12-25T01:32:05.417Z,36.46
2022-12-25T01:33:05.369Z,36.63
2022-12-25T01:34:05.376Z,36.49
2022-12-25T01:35:05.361Z,36.54
2022-12-25T01:36:05.321Z,36.40
2022-12-25T01:37:05.338Z,36.54
2022-12-25T01:38:05.306Z,36.53
2022-12-25T01:39:05.322Z,36.56
2022-12-25T01:40:05.286Z,36.59
2022-12-25T01:41:05.278Z,36.59
2022-12-25T01:42:05.281Z,36.57
2022-12-25T01:43:05.251Z,36.59
2022-12-25T01:44:05.289Z,36.51
2022-12-25T01:45:05.234Z,36.45
2022-12-25T01:46:05.299Z,36.55
2022-12-25T01:47:05.224Z,36.52
2022-12-25T01:48:05.223Z,36.52
2022-12-25T01:49:05.228Z,36.50
2022-12-25T01:50:05.197Z,36.57
2022-12-25T01:51:05.231Z,36.56
2022-12-25T01:52:05.168Z,36.58
2022-12-25T01:53:05.162Z,36.60
2022-12-25T01:54:05.176Z,36.63
2022-12-25T01:55:05.169Z,36.58
2022-12-25T01:56:05.154Z,36.60
2022-12-25T01:57:05.135Z,36.54
2022-12-25T01:58:05.122Z,36.56
2022-12-25T01:59:05.130Z,36.70
2022-12-25T02:00:05.097Z,36.66
2022-12-25T02:01:05.152Z,36.50
2022-12-25T02:02:05.314Z,36.54
2022-12-25T02:03:05.160Z,36.45
2022-12-25T02:04:05.087Z,36.45
2022-12-25T02:05:05.055Z,36.49
2022-12-25T02:06:05.063Z,36.41
2022-12-25T02:07:05.048Z,36.42
2022-12-25T02:08:05.042Z,36.38
2022-12-25T02:09:05.021Z,36.23
2022-12-25T02:10:05.008Z,36.28
2022-12-25T02:11:05.031Z,36.41
2022-12-25T02:12:05.007Z,36.24
2022-12-25T02:13:04.983Z,36.34
2022-12-25T02:14:04.971Z,36.19
2022-12-25T02:15:06.221Z,36.25
2022-12-25T02:16:04.999Z,36.22
2022-12-25T02:17:05.061Z,36.28
2022-12-25T02:18:04.955Z,36.34
2022-12-25T02:19:04.955Z,36.18
2022-12-25T02:20:04.954Z,36.35
2022-12-25T02:21:04.939Z,36.27
2022-12-25T02:22:04.902Z,36.25
2022-12-25T02:23:04.901Z,36.23
2022-12-25T02:24:04.904Z,36.19
2022-12-25T02:25:04.913Z,36.17
2022-12-25T02:26:04.873Z,36.21
2022-12-25T02:27:04.899Z,36.17
2022-12-25T02:28:04.930Z,36.10
2022-12-25T02:29:04.871Z,36.18
2022-12-25T02:30:04.858Z,36.04
2022-12-25T02:31:04.864Z,36.10
2022-12-25T02:32:04.888Z,36.08
2022-12-25T02:33:04.802Z,36.05
2022-12-25T02:34:04.842Z,36.05
2022-12-25T02:35:04.779Z,36.19
2022-12-25T02:36:04.833Z,36.04
2022-12-25T02:37:04.776Z,35.97
2022-12-25T02:38:04.766Z,36.06
2022-12-25T02:39:04.767Z,36.03
2022-12-25T02:40:04.739Z,36.05
2022-12-25T02:41:04.741Z,36.06
2022-12-25T02:42:04.781Z,36.02
2022-12-25T02:43:04.713Z,36.05
2022-12-25T02:44:04.728Z,36.16
2022-12-25T02:45:04.694Z,36.05
2022-12-25T02:46:04.742Z,36.08
2022-12-25T02:47:04.711Z,36.07
2022-12-25T02:48:04.670Z,35.98
2022-12-25T02:49:04.657Z,36.03
2022-12-25T02:50:04.698Z,36.03
2022-12-25T02:51:04.643Z,36.16
2022-12-25T02:52:04.639Z,36.08
2022-12-25T02:53:04.677Z,36.06
2022-12-25T02:54:04.627Z,36.04
2022-12-25T02:55:04.609Z,36.05
2022-12-25T02:56:04.615Z,36.10
2022-12-25T02:57:04.594Z,35.99
2022-12-25T02:58:04.618Z,36.08
2022-12-25T02:59:04.575Z,36.05
2022-12-25T03:00:04.570Z,36.15
2022-12-25T03:01:04.628Z,36.08
2022-12-25T03:02:04.628Z,35.99
2022-12-25T03:03:04.580Z,36.04
2022-12-25T03:04:04.573Z,36.06
2022-12-25T03:05:04.521Z,36.06
2022-12-25T03:06:04.518Z,36.00
2022-12-25T03:07:04.517Z,36.09
2022-12-25T03:08:04.502Z,36.03
2022-12-25T03:09:04.505Z,36.05
2022-12-25T03:10:04.467Z,36.13
2022-12-25T03:11:04.478Z,36.09
2022-12-25T03:12:04.718Z,36.18
2022-12-25T03:13:04.687Z,36.19
2022-12-25T03:14:04.696Z,36.16
2022-12-25T03:15:04.662Z,36.16
2022-12-25T03:16:04.659Z,36.23
2022-12-25T03:17:04.660Z,36.18
2022-12-25T03:18:04.660Z,36.11
2022-12-25T03:19:04.749Z,36.10
2022-12-25T03:20:04.746Z,36.15
2022-12-25T03:21:04.807Z,36.16
2022-12-25T03:22:04.880Z,36.32
2022-12-25T03:23:04.912Z,36.19
2022-12-25T03:24:04.948Z,36.19
2022-12-25T03:25:05.026Z,36.09
2022-12-25T03:26:05.048Z,36.13
2022-12-25T03:27:05.093Z,36.19
2022-12-25T03:28:05.162Z,36.10
2022-12-25T03:29:05.195Z,36.05
2022-12-25T03:30:05.248Z,36.03
2022-12-25T03:31:05.326Z,36.01
2022-12-25T03:32:05.344Z,36.11
2022-12-25T03:33:17.978Z,36.13
2022-12-25T03:34:06.409Z,35.98
2022-12-25T03:35:06.514Z,36.10
2022-12-25T03:36:05.364Z,36.10
2022-12-25T03:37:05.356Z,36.15
2022-12-25T03:38:05.370Z,36.11
2022-12-25T03:39:05.375Z,36.11
2022-12-25T03:40:05.323Z,36.16
2022-12-25T03:41:05.326Z,36.15
2022-12-25T03:42:05.312Z,36.15
2022-12-25T03:43:05.305Z,36.10
2022-12-25T03:44:05.326Z,36.10
2022-12-25T03:45:05.287Z,36.04
2022-12-25T03:46:05.353Z,36.09
2022-12-25T03:47:05.286Z,36.14
2022-12-25T03:48:05.265Z,36.01
2022-12-25T03:49:05.270Z,36.08
2022-12-25T03:50:05.242Z,36.01
2022-12-25T03:51:05.266Z,36.06
2022-12-25T03:52:05.247Z,35.97
2022-12-25T03:53:05.212Z,35.94
2022-12-25T03:54:05.230Z,36.02
2022-12-25T03:55:05.197Z,36.04
2022-12-25T03:56:05.220Z,35.98
2022-12-25T03:57:05.173Z,36.13
2022-12-25T03:58:05.182Z,35.95
2022-12-25T03:59:05.194Z,36.13
2022-12-25T04:00:05.149Z,35.93
2022-12-25T04:01:05.154Z,36.06
2022-12-25T04:02:05.279Z,36.00
2022-12-25T04:03:05.137Z,35.94
2022-12-25T04:04:05.123Z,35.98
2022-12-25T04:05:05.261Z,36.05
2022-12-25T04:06:05.094Z,36.15
2022-12-25T04:07:05.099Z,36.04
2022-12-25T04:08:05.087Z,36.04
2022-12-25T04:09:05.094Z,36.06
2022-12-25T04:10:05.086Z,36.16
2022-12-25T04:11:05.056Z,35.98
2022-12-25T04:12:05.038Z,35.92
2022-12-25T04:13:05.047Z,36.00
2022-12-25T04:14:05.031Z,36.00
2022-12-25T04:15:05.039Z,35.98
2022-12-25T04:16:05.077Z,35.92
2022-12-25T04:17:05.007Z,36.00
2022-12-25T04:18:04.985Z,36.01
2022-12-25T04:19:04.987Z,35.97
2022-12-25T04:20:05.002Z,35.95
2022-12-25T04:21:04.977Z,36.04
2022-12-25T04:22:04.963Z,35.96
2022-12-25T04:23:04.947Z,35.89
2022-12-25T04:24:04.968Z,35.88
2022-12-25T04:25:04.949Z,35.92
2022-12-25T04:26:04.921Z,35.93
2022-12-25T04:27:04.916Z,35.94
2022-12-25T04:28:04.903Z,35.87
2022-12-25T04:29:04.913Z,35.94
2022-12-25T04:30:04.915Z,35.88
2022-12-25T04:31:04.938Z,35.92
2022-12-25T04:32:04.863Z,35.95
2022-12-25T04:33:04.885Z,35.95
2022-12-25T04:34:04.914Z,35.94
2022-12-25T04:35:04.940Z,35.88
2022-12-25T04:36:04.843Z,35.92
2022-12-25T04:37:04.839Z,35.87
2022-12-25T04:38:04.819Z,36.00
2022-12-25T04:39:04.802Z,35.84
2022-12-25T04:40:04.812Z,35.87
2022-12-25T04:41:04.794Z,35.81
2022-12-25T04:42:04.796Z,35.85
2022-12-25T04:43:04.789Z,35.78
2022-12-25T04:44:04.771Z,35.73
2022-12-25T04:45:04.754Z,35.77
2022-12-25T04:46:04.787Z,35.81
2022-12-25T04:47:10.906Z,35.64
2022-12-25T04:48:05.747Z,35.70
2022-12-25T04:49:04.710Z,35.82
2022-12-25T04:50:04.724Z,35.69
2022-12-25T04:51:04.699Z,35.81
2022-12-25T04:52:04.678Z,35.63
2022-12-25T04:53:04.706Z,35.68
2022-12-25T04:54:04.668Z,35.69
2022-12-25T04:55:04.652Z,35.79
2022-12-25T04:56:04.655Z,35.73
2022-12-25T04:57:04.689Z,35.68
2022-12-25T04:58:04.659Z,35.69
2022-12-25T04:59:04.622Z,35.69
2022-12-25T05:00:04.616Z,35.65
2022-12-25T05:01:04.630Z,35.70
2022-12-25T05:02:04.712Z,35.86
2022-12-25T05:03:04.669Z,36.13
2022-12-25T05:04:04.571Z,35.95
2022-12-25T05:05:04.576Z,35.79
2022-12-25T05:06:04.559Z,35.73
2022-12-25T05:07:04.577Z,35.77
2022-12-25T05:08:04.568Z,36.10
2022-12-25T05:09:04.528Z,36.07
2022-12-25T05:10:04.562Z,36.26
2022-12-25T05:11:04.581Z,36.55
2022-12-25T05:12:04.512Z,36.41
2022-12-25T05:13:04.565Z,36.54
2022-12-25T05:14:04.508Z,36.42
2022-12-25T05:15:04.529Z,36.22
2022-12-25T05:16:04.551Z,36.26
2022-12-25T05:17:04.463Z,36.20
2022-12-25T05:18:04.491Z,36.20
2022-12-25T05:19:04.466Z,36.10
2022-12-25T05:20:04.433Z,36.03
2022-12-25T05:21:04.442Z,36.00
2022-12-25T05:22:04.424Z,35.99
2022-12-25T05:23:04.403Z,36.00
2022-12-25T05:24:04.431Z,35.97
2022-12-25T05:25:04.420Z,35.95
2022-12-25T05:26:04.382Z,35.98
2022-12-25T05:27:04.363Z,36.01
2022-12-25T05:28:04.359Z,36.11
2022-12-25T05:29:04.377Z,35.99
2022-12-25T05:30:04.368Z,35.98
2022-12-25T05:31:04.409Z,36.02
2022-12-25T05:32:04.350Z,35.86
2022-12-25T05:33:04.381Z,35.90
2022-12-25T05:34:04.314Z,35.99
2022-12-25T05:35:04.306Z,35.87
2022-12-25T05:36:04.295Z,35.90
2022-12-25T05:37:04.284Z,35.85
2022-12-25T05:38:04.305Z,35.90
2022-12-25T05:39:04.273Z,35.74
2022-12-25T05:40:04.271Z,35.81
2022-12-25T05:41:04.242Z,35.81
2022-12-25T05:42:04.268Z,35.82
2022-12-25T05:43:04.262Z,35.95
2022-12-25T05:44:04.221Z,36.08
2022-12-25T05:45:04.243Z,36.23
2022-12-25T05:46:04.217Z,36.42
2022-12-25T05:47:04.380Z,36.01
2022-12-25T05:48:04.257Z,35.77
2022-12-25T05:49:04.220Z,35.68
2022-12-25T05:50:04.160Z,35.77
2022-12-25T05:51:04.217Z,35.69
2022-12-25T05:52:04.199Z,35.65
2022-12-25T05:53:08.053Z,35.62
2022-12-25T05:54:04.126Z,35.67
2022-12-25T05:55:04.137Z,35.70
2022-12-25T05:56:04.159Z,35.68
2022-12-25T05:57:04.106Z,35.77
2022-12-25T05:58:04.094Z,35.69
2022-12-25T05:59:04.091Z,35.73
2022-12-25T06:00:04.086Z,35.69
2022-12-25T06:01:04.069Z,35.65
2022-12-25T06:02:04.140Z,35.58
2022-12-25T06:03:04.205Z,35.60
2022-12-25T06:04:10.174Z,35.62
2022-12-25T06:05:05.069Z,35.63
2022-12-25T06:06:04.033Z,35.69
2022-12-25T06:07:04.014Z,35.61
2022-12-25T06:08:04.010Z,35.60
2022-12-25T06:09:04.021Z,35.60
2022-12-25T06:10:03.978Z,35.52
2022-12-25T06:11:04.007Z,35.56
2022-12-25T06:12:03.967Z,35.51
2022-12-25T06:13:03.960Z,35.52
2022-12-25T06:14:03.978Z,35.53
2022-12-25T06:15:03.946Z,35.55
2022-12-25T06:16:03.957Z,35.55
2022-12-25T06:17:04.202Z,35.57
2022-12-25T06:18:03.910Z,35.53
2022-12-25T06:19:03.901Z,35.51
2022-12-25T06:20:03.913Z,35.48
2022-12-25T06:21:03.915Z,35.65
2022-12-25T06:22:03.878Z,35.55
2022-12-25T06:23:03.871Z,35.60
2022-12-25T06:24:03.871Z,35.49
2022-12-25T06:25:03.856Z,35.51
2022-12-25T06:26:03.867Z,35.48
2022-12-25T06:27:03.831Z,35.53
2022-12-25T06:28:03.827Z,35.56
2022-12-25T06:29:03.808Z,35.54
2022-12-25T06:30:03.812Z,35.54
2022-12-25T06:31:03.914Z,35.48
2022-12-25T06:32:03.892Z,35.53
2022-12-25T06:33:03.780Z,35.43
2022-12-25T06:34:03.786Z,35.51
2022-12-25T06:35:03.757Z,35.48
2022-12-25T06:36:03.788Z,35.51
2022-12-25T06:37:03.750Z,35.52
2022-12-25T06:38:03.753Z,35.42
2022-12-25T06:39:03.720Z,35.43
2022-12-25T06:40:03.712Z,35.53
2022-12-25T06:41:03.745Z,35.45
2022-12-25T06:42:03.697Z,35.51
2022-12-25T06:43:03.687Z,35.47
2022-12-25T06:44:03.834Z,35.43
2022-12-25T06:45:03.675Z,35.57
2022-12-25T06:46:04.085Z,35.44
2022-12-25T06:47:03.658Z,35.59
2022-12-25T06:48:03.651Z,35.53
2022-12-25T06:49:03.642Z,35.47
2022-12-25T06:50:03.621Z,35.55
2022-12-25T06:51:03.643Z,35.53
2022-12-25T06:52:03.602Z,35.56
2022-12-25T06:53:03.597Z,35.51
2022-12-25T06:54:03.608Z,35.48
2022-12-25T06:55:03.584Z,35.42
2022-12-25T06:56:03.658Z,35.55
2022-12-25T06:57:03.713Z,35.52
2022-12-25T06:58:03.750Z,35.39
2022-12-25T06:59:03.785Z,35.51
2022-12-25T07:00:03.868Z,35.52
2022-12-25T07:01:03.941Z,35.69
2022-12-25T07:02:04.032Z,36.04
2022-12-25T07:03:04.100Z,35.82
2022-12-25T07:04:04.039Z,35.66
2022-12-25T07:05:04.094Z,35.59
2022-12-25T07:06:04.144Z,35.57
2022-12-25T07:07:08.776Z,35.53
2022-12-25T07:08:05.186Z,35.53
2022-12-25T07:09:04.171Z,35.52
2022-12-25T07:10:04.167Z,35.49
2022-12-25T07:11:04.184Z,35.40
2022-12-25T07:12:04.160Z,35.44
2022-12-25T07:13:04.169Z,35.49
2022-12-25T07:14:04.132Z,35.38
2022-12-25T07:15:04.108Z,35.40
2022-12-25T07:16:04.161Z,35.39
2022-12-25T07:17:04.127Z,35.50
2022-12-25T07:18:04.092Z,35.33
2022-12-25T07:19:04.079Z,35.38
2022-12-25T07:20:04.089Z,35.34
2022-12-25T07:21:04.075Z,35.17
2022-12-25T07:22:04.080Z,35.17
2022-12-25T07:23:04.072Z,35.24
2022-12-25T07:24:04.043Z,35.24
2022-12-25T07:25:04.024Z,35.24
2022-12-25T07:26:04.021Z,35.20
2022-12-25T07:27:04.017Z,35.19
2022-12-25T07:28:04.052Z,35.20
2022-12-25T07:29:04.007Z,35.18
2022-12-25T07:30:03.998Z,35.13
2022-12-25T07:31:03.991Z,35.11
2022-12-25T07:32:04.053Z,35.22
2022-12-25T07:33:03.966Z,35.07
2022-12-25T07:34:03.957Z,35.06
2022-12-25T07:35:03.942Z,35.06
2022-12-25T07:36:03.955Z,35.12
2022-12-25T07:37:03.930Z,35.03
2022-12-25T07:38:03.922Z,35.07
2022-12-25T07:39:03.910Z,35.06
2022-12-25T07:40:03.897Z,35.01
2022-12-25T07:41:03.911Z,34.98
2022-12-25T07:42:03.888Z,34.97
2022-12-25T07:43:03.865Z,35.00
2022-12-25T07:44:03.874Z,34.89
2022-12-25T07:45:03.870Z,34.98
2022-12-25T07:46:03.932Z,34.86
2022-12-25T07:47:03.834Z,34.89
2022-12-25T07:48:05.873Z,34.85
2022-12-25T07:49:03.818Z,34.90
2022-12-25T07:50:03.801Z,34.88
2022-12-25T07:51:03.820Z,34.89
2022-12-25T07:52:03.784Z,34.89
2022-12-25T07:53:03.800Z,34.86
2022-12-25T07:54:03.772Z,34.89
2022-12-25T07:55:03.755Z,34.90
2022-12-25T07:56:03.783Z,35.03
2022-12-25T07:57:03.749Z,34.85
2022-12-25T07:58:03.727Z,34.84
2022-12-25T07:59:03.735Z,34.87
2022-12-25T08:00:03.727Z,34.80
2022-12-25T08:01:03.854Z,34.77
2022-12-25T08:02:03.942Z,34.80
2022-12-25T08:03:04.071Z,34.83
2022-12-25T08:04:03.774Z,34.93
2022-12-25T08:05:03.666Z,34.82
2022-12-25T08:06:03.669Z,34.80
2022-12-25T08:07:03.716Z,34.89
2022-12-25T08:08:03.651Z,34.84
2022-12-25T08:09:03.641Z,34.82
2022-12-25T08:10:03.727Z,34.81
2022-12-25T08:11:03.626Z,34.88
2022-12-25T08:12:03.627Z,34.86
2022-12-25T08:13:07.637Z,34.87
2022-12-25T08:14:04.605Z,34.86
2022-12-25T08:15:03.586Z,34.83
2022-12-25T08:16:03.585Z,34.90
2022-12-25T08:17:03.665Z,34.86
2022-12-25T08:18:03.596Z,34.90
2022-12-25T08:19:03.552Z,34.82
2022-12-25T08:20:03.537Z,34.82
2022-12-25T08:21:03.550Z,34.80
2022-12-25T08:22:03.551Z,34.75
2022-12-25T08:23:03.516Z,34.77
2022-12-25T08:24:03.529Z,34.77
2022-12-25T08:25:03.515Z,35.24
2022-12-25T08:26:05.487Z,35.11
2022-12-25T08:27:03.465Z,35.33
2022-12-25T08:28:03.484Z,35.68
2022-12-25T08:29:03.484Z,36.28
2022-12-25T08:30:03.457Z,36.86
2022-12-25T08:31:03.475Z,37.59
2022-12-25T08:32:03.426Z,37.72
2022-12-25T08:33:03.430Z,37.87
2022-12-25T08:34:03.448Z,38.11
2022-12-25T08:35:03.457Z,38.52
2022-12-25T08:36:03.530Z,38.66
2022-12-25T08:37:03.568Z,38.58
2022-12-25T08:38:03.632Z,38.58
2022-12-25T08:39:03.719Z,38.68
2022-12-25T08:40:03.869Z,38.57
2022-12-25T08:41:03.786Z,38.71
2022-12-25T08:42:03.808Z,39.01
2022-12-25T08:43:03.863Z,39.06
2022-12-25T08:44:03.932Z,39.10
2022-12-25T08:45:03.956Z,39.19
2022-12-25T08:46:04.111Z,41.11
2022-12-25T08:47:04.064Z,41.84
2022-12-25T08:48:04.111Z,43.31
2022-12-25T08:49:04.204Z,40.47
2022-12-25T08:50:04.198Z,39.84
2022-12-25T08:51:04.261Z,39.70
2022-12-25T08:52:04.440Z,39.22
2022-12-25T08:53:04.461Z,38.99
2022-12-25T08:54:04.525Z,38.88
2022-12-25T08:55:04.611Z,38.45
2022-12-25T08:56:04.621Z,38.00
2022-12-25T08:57:04.708Z,37.89
2022-12-25T08:58:04.702Z,37.65
2022-12-25T08:59:04.842Z,37.55
2022-12-25T09:00:04.851Z,37.49
2022-12-25T09:01:04.968Z,37.36
2022-12-25T09:02:04.983Z,37.16
2022-12-25T09:03:05.095Z,37.09
2022-12-25T09:04:04.866Z,37.12
2022-12-25T09:05:04.954Z,37.19
2022-12-25T09:06:04.942Z,37.14
2022-12-25T09:07:04.927Z,37.22
2022-12-25T09:08:04.930Z,37.23
2022-12-25T09:09:04.934Z,37.00
2022-12-25T09:10:04.898Z,36.97
2022-12-25T09:11:04.962Z,37.04
2022-12-25T09:12:05.015Z,37.24
2022-12-25T09:13:05.055Z,37.16
2022-12-25T09:14:05.185Z,37.13
2022-12-25T09:15:05.388Z,37.29
2022-12-25T09:16:05.519Z,37.22
2022-12-25T09:17:05.332Z,37.20
2022-12-25T09:18:05.361Z,37.38
2022-12-25T09:19:05.434Z,37.33
2022-12-25T09:20:05.443Z,37.31
2022-12-25T09:21:05.383Z,37.39
2022-12-25T09:22:05.474Z,37.27
2022-12-25T09:23:11.619Z,37.43
2022-12-25T09:24:06.495Z,37.27
2022-12-25T09:25:05.477Z,37.38
2022-12-25T09:26:05.614Z,37.50
2022-12-25T09:27:05.580Z,37.57
2022-12-25T09:28:05.428Z,37.43
2022-12-25T09:29:05.431Z,37.51
2022-12-25T09:30:05.368Z,37.51
2022-12-25T09:31:05.515Z,37.65
2022-12-25T09:32:05.161Z,37.48
2022-12-25T09:33:05.185Z,37.44
2022-12-25T09:34:05.154Z,37.48
2022-12-25T09:35:05.263Z,37.45
2022-12-25T09:36:05.153Z,37.62
2022-12-25T09:37:05.130Z,37.50
2022-12-25T09:38:05.105Z,37.48
2022-12-25T09:39:05.119Z,37.48
2022-12-25T09:40:05.147Z,37.46
2022-12-25T09:41:05.251Z,37.45
2022-12-25T09:42:05.214Z,37.39
2022-12-25T09:43:05.271Z,37.49
2022-12-25T09:44:05.321Z,37.44
2022-12-25T09:45:05.355Z,37.41
2022-12-25T09:46:05.484Z,37.46
2022-12-25T09:47:05.463Z,37.42
2022-12-25T09:48:05.509Z,37.53
2022-12-25T09:49:05.581Z,37.46
2022-12-25T09:50:05.603Z,37.50
2022-12-25T09:51:05.652Z,37.43
2022-12-25T09:52:05.697Z,37.43
2022-12-25T09:53:05.757Z,37.45
2022-12-25T09:54:05.821Z,37.31
2022-12-25T09:55:05.961Z,37.32
2022-12-25T09:56:05.913Z,37.36
2022-12-25T09:57:05.949Z,37.40
2022-12-25T09:58:06.003Z,37.44
2022-12-25T09:59:06.052Z,37.31
2022-12-25T10:00:06.136Z,37.48
2022-12-25T10:01:06.181Z,37.23
2022-12-25T10:02:06.376Z,37.36
2022-12-25T10:03:06.665Z,37.34
2022-12-25T10:04:06.254Z,37.33
2022-12-25T10:05:06.243Z,37.30
2022-12-25T10:06:06.225Z,37.34
2022-12-25T10:07:06.214Z,37.31
2022-12-25T10:08:06.262Z,37.18
2022-12-25T10:09:06.209Z,37.25
2022-12-25T10:10:06.192Z,37.28
2022-12-25T10:11:06.225Z,37.27
2022-12-25T10:12:06.271Z,37.17
2022-12-25T10:13:06.381Z,37.17
2022-12-25T10:14:06.388Z,37.15
2022-12-25T10:15:06.422Z,37.28
2022-12-25T10:16:06.530Z,37.18
2022-12-25T10:17:06.530Z,37.22
2022-12-25T10:18:06.602Z,37.10
2022-12-25T10:19:06.629Z,37.28
2022-12-25T10:20:06.674Z,37.31
2022-12-25T10:21:12.621Z,37.26
2022-12-25T10:22:07.716Z,37.24
2022-12-25T10:23:06.820Z,37.35
2022-12-25T10:24:06.758Z,37.34
2022-12-25T10:25:06.699Z,37.33
2022-12-25T10:26:06.680Z,37.39
2022-12-25T10:27:06.705Z,37.81
2022-12-25T10:28:06.666Z,37.58
2022-12-25T10:29:06.699Z,37.62
2022-12-25T10:30:06.639Z,37.75
2022-12-25T10:31:06.685Z,37.75
2022-12-25T10:32:06.630Z,37.74
2022-12-25T10:33:07.537Z,37.81
2022-12-25T10:34:06.611Z,37.75
2022-12-25T10:35:06.617Z,37.74
2022-12-25T10:36:06.612Z,37.73
2022-12-25T10:37:06.605Z,37.82
2022-12-25T10:38:06.571Z,37.69
2022-12-25T10:39:06.583Z,37.66
2022-12-25T10:40:06.558Z,37.85
2022-12-25T10:41:06.582Z,37.74
2022-12-25T10:42:06.624Z,37.77
2022-12-25T10:43:06.669Z,37.78
2022-12-25T10:44:06.792Z,37.85
2022-12-25T10:45:06.806Z,37.81
2022-12-25T10:46:06.857Z,37.82
2022-12-25T10:47:06.897Z,37.88
2022-12-25T10:48:08.008Z,37.85
2022-12-25T10:49:06.931Z,37.82
2022-12-25T10:50:06.892Z,37.85
2022-12-25T10:51:06.892Z,37.72
2022-12-25T10:52:06.937Z,37.70
2022-12-25T10:53:07.038Z,37.55
2022-12-25T10:54:07.127Z,37.75
2022-12-25T10:55:07.091Z,37.67
2022-12-25T10:56:07.212Z,37.63
2022-12-25T10:57:07.185Z,37.65
2022-12-25T10:58:07.252Z,37.68
2022-12-25T10:59:07.282Z,37.50
2022-12-25T11:00:07.349Z,37.54
2022-12-25T11:01:07.384Z,37.56
2022-12-25T11:02:07.555Z,37.62
2022-12-25T11:03:07.724Z,37.63
2022-12-25T11:04:07.601Z,37.53
2022-12-25T11:05:07.593Z,37.52
2022-12-25T11:06:07.663Z,37.45
2022-12-25T11:07:07.707Z,37.43
2022-12-25T11:08:07.820Z,37.42
2022-12-25T11:09:07.872Z,37.37
2022-12-25T11:10:07.845Z,37.60
2022-12-25T11:11:07.897Z,37.40
2022-12-25T11:12:07.949Z,37.33
2022-12-25T11:13:08.005Z,37.28
2022-12-25T11:14:08.058Z,37.29
2022-12-25T11:15:08.085Z,37.27
2022-12-25T11:16:08.193Z,37.28
2022-12-25T11:17:08.199Z,37.24
2022-12-25T11:18:08.249Z,37.33
2022-12-25T11:19:08.305Z,37.37
2022-12-25T11:20:08.336Z,37.56
2022-12-25T11:21:08.393Z,37.61
2022-12-25T11:22:08.460Z,37.73
2022-12-25T11:23:08.498Z,37.59
2022-12-25T11:24:08.543Z,37.57
2022-12-25T11:25:08.596Z,37.45
2022-12-25T11:26:08.644Z,37.39
2022-12-25T11:27:08.711Z,37.37
2022-12-25T11:28:08.750Z,37.31
2022-12-25T11:29:08.796Z,37.39
2022-12-25T11:30:14.342Z,37.35
2022-12-25T11:31:09.876Z,37.44
2022-12-25T11:32:08.826Z,37.50
2022-12-25T11:33:08.820Z,37.46
2022-12-25T11:34:08.819Z,37.46
2022-12-25T11:35:08.793Z,37.42
2022-12-25T11:36:08.800Z,37.46
2022-12-25T11:37:08.781Z,37.34
2022-12-25T11:38:08.767Z,37.41
2022-12-25T11:39:08.799Z,37.47
2022-12-25T11:40:08.766Z,37.53
2022-12-25T11:41:08.734Z,37.53
2022-12-25T11:42:08.734Z,37.51
2022-12-25T11:43:08.723Z,37.41
2022-12-25T11:44:08.735Z,37.46
2022-12-25T11:45:08.753Z,37.54
2022-12-25T11:46:08.756Z,37.45
2022-12-25T11:47:08.693Z,37.49
2022-12-25T11:48:08.703Z,37.44
2022-12-25T11:49:08.667Z,37.57
2022-12-25T11:50:08.698Z,37.45
2022-12-25T11:51:08.667Z,37.41
2022-12-25T11:52:08.654Z,37.48
2022-12-25T11:53:08.664Z,37.52
2022-12-25T11:54:08.652Z,37.59
2022-12-25T11:55:08.612Z,37.53
2022-12-25T11:56:08.617Z,37.49
2022-12-25T11:57:08.612Z,37.56
2022-12-25T11:58:08.587Z,37.59
2022-12-25T11:59:11.480Z,37.68
2022-12-25T12:00:09.590Z,37.61
2022-12-25T12:01:08.575Z,37.62
2022-12-25T12:02:08.632Z,37.60
2022-12-25T12:03:08.708Z,37.64
2022-12-25T12:04:08.614Z,37.68
2022-12-25T12:05:08.525Z,37.63
2022-12-25T12:06:08.583Z,37.61
2022-12-25T12:07:08.511Z,37.56
2022-12-25T12:08:08.570Z,37.67
2022-12-25T12:09:08.497Z,37.65
2022-12-25T12:10:08.481Z,37.68
2022-12-25T12:11:08.473Z,37.67
2022-12-25T12:12:08.473Z,37.71
2022-12-25T12:13:08.484Z,37.73
2022-12-25T12:14:08.487Z,37.73
2022-12-25T12:15:08.445Z,37.84
2022-12-25T12:16:08.512Z,37.76
2022-12-25T12:17:08.426Z,37.79
2022-12-25T12:18:08.664Z,37.79
2022-12-25T12:19:08.402Z,37.76
2022-12-25T12:20:08.449Z,37.90
2022-12-25T12:21:08.392Z,37.81
2022-12-25T12:22:08.379Z,37.93
2022-12-25T12:23:08.370Z,37.85
2022-12-25T12:24:08.361Z,37.95
2022-12-25T12:25:08.378Z,37.83
2022-12-25T12:26:08.392Z,37.83
2022-12-25T12:27:08.342Z,37.77
2022-12-25T12:28:08.324Z,37.73
2022-12-25T12:29:08.330Z,37.79
2022-12-25T12:30:08.309Z,37.96
2022-12-25T12:31:08.331Z,37.78
2022-12-25T12:32:08.371Z,37.70
2022-12-25T12:33:08.285Z,37.90
2022-12-25T12:34:08.272Z,37.69
2022-12-25T12:35:08.263Z,37.76
2022-12-25T12:36:08.257Z,37.75
2022-12-25T12:37:08.269Z,37.76
2022-12-25T12:38:08.238Z,37.81
2022-12-25T12:39:08.232Z,37.64
2022-12-25T12:40:08.227Z,37.79
2022-12-25T12:41:08.226Z,37.77
2022-12-25T12:42:08.233Z,37.66
2022-12-25T12:43:08.191Z,37.44
2022-12-25T12:44:08.183Z,37.45
2022-12-25T12:45:08.188Z,37.48
2022-12-25T12:46:08.196Z,37.44
2022-12-25T12:47:08.175Z,37.43
2022-12-25T12:48:08.141Z,37.53
2022-12-25T12:49:08.142Z,37.57
2022-12-25T12:50:08.127Z,37.57
2022-12-25T12:51:08.126Z,37.43
2022-12-25T12:52:08.130Z,37.42